Florencia — IBPD — position and weather

sailwx.info

Track history (hours):
 
Tides and Currents Weather Stations Pressure Air Temp Water Temp Dewpoint Dewpoint Depression Visibility Wind Speed Wind Dir Waves Ship Positions

Florencia

Last reported at 2015-Aug-28 21:33 UTC. Time now 2015-Aug-28 22:24 UTC.
Position N 44°19' E 008°30'.

Length 186 m; draft 6.6 m.

Type: Passenger vessel. MMSI: 247105900.

Date/timePositionNaut miles runAvg speedWind from/ knotsBaromVisibWave heightAir tempDewpointWater temp
2015-Aug-28 21:33N 44°19' E 008°30'0 0.0
2015-Aug-28 20:33N 44°19' E 008°30'0 0.0
2015-Aug-28 19:33N 44°19' E 008°30'0 0.0
2015-Aug-28 18:33N 44°19' E 008°30'0 0.0
2015-Aug-28 17:33N 44°19' E 008°30'0 0.4
2015-Aug-28 16:34N 44°19' E 008°30'1515.4
2015-Aug-28 15:33N 44°04' E 008°23'1818.1
2015-Aug-28 14:33N 43°50' E 008°08'1818.2
2015-Aug-28 13:33N 43°39' E 007°48'1818.4
2015-Aug-28 12:33N 43°26' E 007°29'1918.7
2015-Aug-28 11:33N 43°14' E 007°10'1918.7
2015-Aug-28 10:33N 43°02' E 006°50'1818.3
2015-Aug-28 09:33N 42°50' E 006°31'1918.5
2015-Aug-28 08:34N 42°42' E 006°08'3919.6
2015-Aug-28 06:33N 42°25' E 005°20'2019.9
2015-Aug-28 05:33N 42°16' E 004°56'2020.3
2015-Aug-28 04:33N 42°08' E 004°31'4420.3
2015-Aug-28 02:22N 41°47' E 003°38'1719.6
2015-Aug-28 01:29N 41°40' E 003°17'2520.1
2015-Aug-28 00:16N 41°30' E 002°48'1420.1
2015-Aug-27 23:33N 41°23' E 002°31'1615.7
2015-Aug-27 22:33N 41°19' E 002°10'3 2.1
2015-Aug-27 21:18N 41°22' E 002°11'0 0.0
2015-Aug-27 17:30N 41°22' E 002°11'0 0.0
2015-Aug-27 16:31N 41°22' E 002°11'5 5.2
2015-Aug-27 15:33N 41°19' E 002°16'1917.6
2015-Aug-27 14:29N 41°28' E 002°38'3617.8
2015-Aug-27 12:29N 41°43' E 003°21'7418.9
2015-Aug-27 08:34N 42°14' E 004°52'1919.3
2015-Aug-27 07:33N 42°22' E 005°15'1919.3
2015-Aug-27 06:33N 42°31' E 005°38'2019.6
2015-Aug-27 05:33N 42°40' E 006°03'2020.4
2015-Aug-27 04:33N 42°48' E 006°28'2020.5
2015-Aug-27 03:33N 42°59' E 006°51'2020.2
2015-Aug-27 02:33N 43°14' E 007°11'2020.3
2015-Aug-27 01:34N 43°27' E 007°31'2120.7
2015-Aug-27 00:32N 43°41' E 007°53'2020.9
2015-Aug-26 23:34N 43°55' E 008°14'2121.2
2015-Aug-26 22:34N 44°13' E 008°30'6 5.8
2015-Aug-26 21:33N 44°19' E 008°30'0 0.0
2015-Aug-26 20:33N 44°19' E 008°30'0 0.0
2015-Aug-26 19:33N 44°19' E 008°30'0 0.0
2015-Aug-26 18:33N 44°19' E 008°30'0 0.0
2015-Aug-26 17:33N 44°19' E 008°30'0 0.0
2015-Aug-26 16:33N 44°19' E 008°30'1211.5
2015-Aug-26 15:33N 44°08' E 008°26'1717.2
2015-Aug-26 14:33N 43°54' E 008°12'1917.4
2015-Aug-26 13:29N 43°41' E 007°52'1717.8
2015-Aug-26 12:33N 43°30' E 007°36'1818.3
2015-Aug-26 11:33N 43°18' E 007°17'1918.5
2015-Aug-26 10:33N 43°05' E 006°58'1818.0
2015-Aug-26 09:33N 42°54' E 006°40'2218.6
2015-Aug-26 08:22N 42°43' E 006°14'1619.2
2015-Aug-26 07:33N 42°37' E 005°54'1919.3
2015-Aug-26 06:33N 42°28' E 005°30'2620.0
2015-Aug-26 05:15N 42°17' E 004°58'3419.8
2015-Aug-26 03:33N 42°02' E 004°18'2120.6
2015-Aug-26 02:31N 41°53' E 003°52'3919.7
2015-Aug-26 00:32N 41°37' E 003°04'2020.2
2015-Aug-25 23:33N 41°29' E 002°40'2019.9
2015-Aug-25 22:33N 41°21' E 002°16'4 0.8
2015-Aug-25 17:25N 41°22' E 002°11'0 0.0
2015-Aug-25 16:25N 41°22' E 002°11'4 4.4
2015-Aug-25 15:30N 41°21' E 002°16'21519.6
2015-Aug-25 04:34N 42°51' E 006°38'2020.3
2015-Aug-25 03:34N 43°05' E 006°59'2020.2
2015-Aug-25 02:34N 43°19' E 007°18'2020.3
2015-Aug-25 01:34N 43°32' E 007°39'4320.5
2015-Aug-24 23:27N 44°03' E 008°21'1719.3
2015-Aug-24 22:34N 44°19' E 008°31'1 0.7
2015-Aug-24 21:31N 44°19' E 008°30'0 0.0
2015-Aug-24 20:31N 44°19' E 008°30'0 0.0
2015-Aug-24 19:31N 44°19' E 008°30'0 0.0
2015-Aug-24 18:31N 44°19' E 008°30'0 0.0
2015-Aug-24 17:31N 44°19' E 008°30'0 0.0
2015-Aug-24 16:31N 44°19' E 008°30'0 0.0
2015-Aug-24 15:31N 44°19' E 008°30'0 0.0
2015-Aug-24 14:31N 44°19' E 008°30'0 0.0
2015-Aug-24 13:28N 44°19' E 008°30'0 0.0
2015-Aug-24 12:31N 44°19' E 008°30'0 0.0
2015-Aug-24 11:31N 44°19' E 008°30'0 0.0
2015-Aug-24 10:31N 44°19' E 008°30'0 0.0
2015-Aug-24 09:31N 44°19' E 008°30'0 0.0
2015-Aug-24 08:31N 44°19' E 008°30'0 0.0
2015-Aug-24 07:31N 44°19' E 008°30'0 0.0
2015-Aug-24 06:31N 44°19' E 008°30'0 0.0
2015-Aug-24 05:31N 44°19' E 008°30'0 0.0
2015-Aug-24 04:28N 44°19' E 008°30'0 0.0
2015-Aug-24 03:31N 44°19' E 008°30'0 0.0
2015-Aug-24 02:31N 44°19' E 008°30'0 0.0
2015-Aug-24 01:31N 44°19' E 008°30'0 0.0
2015-Aug-24 00:31N 44°19' E 008°30'0 0.0
2015-Aug-23 23:31N 44°19' E 008°30'0 0.0
2015-Aug-23 22:31N 44°19' E 008°30'0 0.0
2015-Aug-23 21:34N 44°19' E 008°30'0 0.0
2015-Aug-23 20:34N 44°19' E 008°30'0 0.0
2015-Aug-23 19:33N 44°19' E 008°30'0 0.0
2015-Aug-23 18:34N 44°19' E 008°30'4 3.6
2015-Aug-23 17:33N 44°15' E 008°31'7518.8
2015-Aug-23 13:32N 43°20' E 007°19'2019.0
2015-Aug-23 12:30N 43°07' E 006°59'1718.4
2015-Aug-23 11:33N 42°56' E 006°41'21619.5
2015-Aug-23 00:29N 41°19' E 002°20'8 7.7
2015-Aug-22 23:30N 41°22' E 002°11'5 0.6
2015-Aug-22 16:05N 41°17' E 002°13'5 8.7
2015-Aug-22 15:32N 41°19' E 002°18'1818.2
2015-Aug-22 14:33N 41°28' E 002°40'1818.4
2015-Aug-22 13:33N 41°36' E 003°02'15718.7
2015-Aug-22 05:10N 42°43' E 006°13'1620.5
2015-Aug-22 04:22N 42°49' E 006°34'1720.4
2015-Aug-22 03:34N 42°58' E 006°53'2120.5
2015-Aug-22 02:34N 43°13' E 007°12'7120.6
2015-Aug-21 23:06N 44°03' E 008°22'1120.5
2015-Aug-21 22:33N 44°13' E 008°30'6 6.1
2015-Aug-21 21:33N 44°19' E 008°30'0 0.0
2015-Aug-21 20:33N 44°19' E 008°30'0 0.0
2015-Aug-21 19:33N 44°19' E 008°30'0 0.0
2015-Aug-21 18:33N 44°19' E 008°30'0 0.0
2015-Aug-21 17:33N 44°19' E 008°30'0 0.1
2015-Aug-21 16:33N 44°19' E 008°30'1313.3
2015-Aug-21 15:33N 44°06' E 008°25'5818.2
2015-Aug-21 12:21N 43°25' E 007°28'1518.3
2015-Aug-21 11:31N 43°14' E 007°12'1818.4
2015-Aug-21 10:33N 43°03' E 006°54'1818.2
2015-Aug-21 09:33N 42°51' E 006°34'5819.2
2015-Aug-21 06:32N 42°25' E 005°25'4419.9
2015-Aug-21 04:17N 42°06' E 004°30'1919.9
2015-Aug-21 03:20N 41°58' E 004°07'1819.9
2015-Aug-21 02:27N 41°50' E 003°45'2120.1
2015-Aug-21 01:24N 41°41' E 003°20'1720.1
2015-Aug-21 00:33N 41°33' E 002°60'2020.1
2015-Aug-20 23:33N 41°25' E 002°35'2020.0
2015-Aug-20 22:33N 41°17' E 002°11'5 3.9
2015-Aug-20 21:15N 41°22' E 002°11'0 0.0
2015-Aug-20 16:33N 41°22' E 002°11'5 4.8
2015-Aug-20 15:32N 41°18' E 002°15'21218.8
2015-Aug-20 04:16N 42°50' E 006°33'1420.3
2015-Aug-20 03:33N 42°59' E 006°48'2120.7
2015-Aug-20 02:33N 43°13' E 007°08'7220.8
2015-Aug-19 23:05N 44°02' E 008°21'1120.8
2015-Aug-19 22:33N 44°12' E 008°29'7 6.9
2015-Aug-19 21:32N 44°19' E 008°30'0 0.0
2015-Aug-19 20:32N 44°19' E 008°30'0 0.0
2015-Aug-19 19:32N 44°19' E 008°30'0 0.0
2015-Aug-19 18:32N 44°19' E 008°30'0 0.0
2015-Aug-19 17:32N 44°19' E 008°30'1 0.7
2015-Aug-19 16:33N 44°19' E 008°31'1817.9
2015-Aug-19 15:32N 44°02' E 008°20'5819.0
2015-Aug-19 12:29N 43°21' E 007°23'1819.2
2015-Aug-19 11:34N 43°10' E 007°05'2219.3
2015-Aug-19 10:26N 42°56' E 006°41'  
Track history (hours):
 
Tides and Currents Weather Stations Pressure Air Temp Water Temp Dewpoint Dewpoint Depression Visibility Wind Speed Wind Dir Waves Ship Positions

Florencia

Last reported at 2015-Aug-28 21:33 UTC. Time now 2015-Aug-28 22:24 UTC.
Position N 44°19' E 008°30'.

Length 186 m; draft 6.6 m.

Type: Passenger vessel. MMSI: 247105900.

Date/timePositionNaut miles runAvg speedWind from/ knotsBaromVisibWave heightAir tempDewpointWater temp
2015-Aug-28 21:33N 44°19' E 008°30'0 0.0
2015-Aug-28 20:33N 44°19' E 008°30'0 0.0
2015-Aug-28 19:33N 44°19' E 008°30'0 0.0
2015-Aug-28 18:33N 44°19' E 008°30'0 0.0
2015-Aug-28 17:33N 44°19' E 008°30'0 0.4
2015-Aug-28 16:34N 44°19' E 008°30'1515.4
2015-Aug-28 15:33N 44°04' E 008°23'1818.1
2015-Aug-28 14:33N 43°50' E 008°08'1818.2
2015-Aug-28 13:33N 43°39' E 007°48'1818.4
2015-Aug-28 12:33N 43°26' E 007°29'1918.7
2015-Aug-28 11:33N 43°14' E 007°10'1918.7
2015-Aug-28 10:33N 43°02' E 006°50'1818.3
2015-Aug-28 09:33N 42°50' E 006°31'1918.5
2015-Aug-28 08:34N 42°42' E 006°08'3919.6
2015-Aug-28 06:33N 42°25' E 005°20'2019.9
2015-Aug-28 05:33N 42°16' E 004°56'2020.3
2015-Aug-28 04:33N 42°08' E 004°31'4420.3
2015-Aug-28 02:22N 41°47' E 003°38'1719.6
2015-Aug-28 01:29N 41°40' E 003°17'2520.1
2015-Aug-28 00:16N 41°30' E 002°48'1420.1
2015-Aug-27 23:33N 41°23' E 002°31'1615.7
2015-Aug-27 22:33N 41°19' E 002°10'3 2.1
2015-Aug-27 21:18N 41°22' E 002°11'0 0.0
2015-Aug-27 17:30N 41°22' E 002°11'0 0.0
2015-Aug-27 16:31N 41°22' E 002°11'5 5.2
2015-Aug-27 15:33N 41°19' E 002°16'1917.6
2015-Aug-27 14:29N 41°28' E 002°38'3617.8
2015-Aug-27 12:29N 41°43' E 003°21'7418.9
2015-Aug-27 08:34N 42°14' E 004°52'1919.3
2015-Aug-27 07:33N 42°22' E 005°15'1919.3
2015-Aug-27 06:33N 42°31' E 005°38'2019.6
2015-Aug-27 05:33N 42°40' E 006°03'2020.4
2015-Aug-27 04:33N 42°48' E 006°28'2020.5
2015-Aug-27 03:33N 42°59' E 006°51'2020.2
2015-Aug-27 02:33N 43°14' E 007°11'2020.3
2015-Aug-27 01:34N 43°27' E 007°31'2120.7
2015-Aug-27 00:32N 43°41' E 007°53'2020.9
2015-Aug-26 23:34N 43°55' E 008°14'2121.2
2015-Aug-26 22:34N 44°13' E 008°30'6 5.8
2015-Aug-26 21:33N 44°19' E 008°30'0 0.0
2015-Aug-26 20:33N 44°19' E 008°30'0 0.0
2015-Aug-26 19:33N 44°19' E 008°30'0 0.0
2015-Aug-26 18:33N 44°19' E 008°30'0 0.0
2015-Aug-26 17:33N 44°19' E 008°30'0 0.0
2015-Aug-26 16:33N 44°19' E 008°30'1211.5
2015-Aug-26 15:33N 44°08' E 008°26'1717.2
2015-Aug-26 14:33N 43°54' E 008°12'1917.4
2015-Aug-26 13:29N 43°41' E 007°52'1717.8
2015-Aug-26 12:33N 43°30' E 007°36'1818.3
2015-Aug-26 11:33N 43°18' E 007°17'1918.5
2015-Aug-26 10:33N 43°05' E 006°58'1818.0
2015-Aug-26 09:33N 42°54' E 006°40'2218.6
2015-Aug-26 08:22N 42°43' E 006°14'1619.2
2015-Aug-26 07:33N 42°37' E 005°54'1919.3
2015-Aug-26 06:33N 42°28' E 005°30'2620.0
2015-Aug-26 05:15N 42°17' E 004°58'3419.8
2015-Aug-26 03:33N 42°02' E 004°18'2120.6
2015-Aug-26 02:31N 41°53' E 003°52'3919.7
2015-Aug-26 00:32N 41°37' E 003°04'2020.2
2015-Aug-25 23:33N 41°29' E 002°40'2019.9
2015-Aug-25 22:33N 41°21' E 002°16'4 0.8
2015-Aug-25 17:25N 41°22' E 002°11'0 0.0
2015-Aug-25 16:25N 41°22' E 002°11'4 4.4
2015-Aug-25 15:30N 41°21' E 002°16'21519.6
2015-Aug-25 04:34N 42°51' E 006°38'2020.3
2015-Aug-25 03:34N 43°05' E 006°59'2020.2
2015-Aug-25 02:34N 43°19' E 007°18'2020.3
2015-Aug-25 01:34N 43°32' E 007°39'4320.5
2015-Aug-24 23:27N 44°03' E 008°21'1719.3
2015-Aug-24 22:34N 44°19' E 008°31'1 0.7
2015-Aug-24 21:31N 44°19' E 008°30'0 0.0
2015-Aug-24 20:31N 44°19' E 008°30'0 0.0
2015-Aug-24 19:31N 44°19' E 008°30'0 0.0
2015-Aug-24 18:31N 44°19' E 008°30'0 0.0
2015-Aug-24 17:31N 44°19' E 008°30'0 0.0
2015-Aug-24 16:31N 44°19' E 008°30'0 0.0
2015-Aug-24 15:31N 44°19' E 008°30'0 0.0
2015-Aug-24 14:31N 44°19' E 008°30'0 0.0
2015-Aug-24 13:28N 44°19' E 008°30'0 0.0
2015-Aug-24 12:31N 44°19' E 008°30'0 0.0
2015-Aug-24 11:31N 44°19' E 008°30'0 0.0
2015-Aug-24 10:31N 44°19' E 008°30'0 0.0
2015-Aug-24 09:31N 44°19' E 008°30'0 0.0
2015-Aug-24 08:31N 44°19' E 008°30'0 0.0
2015-Aug-24 07:31N 44°19' E 008°30'0 0.0
2015-Aug-24 06:31N 44°19' E 008°30'0 0.0
2015-Aug-24 05:31N 44°19' E 008°30'0 0.0
2015-Aug-24 04:28N 44°19' E 008°30'0 0.0
2015-Aug-24 03:31N 44°19' E 008°30'0 0.0
2015-Aug-24 02:31N 44°19' E 008°30'0 0.0
2015-Aug-24 01:31N 44°19' E 008°30'0 0.0
2015-Aug-24 00:31N 44°19' E 008°30'0 0.0
2015-Aug-23 23:31N 44°19' E 008°30'0 0.0
2015-Aug-23 22:31N 44°19' E 008°30'0 0.0
2015-Aug-23 21:34N 44°19' E 008°30'0 0.0
2015-Aug-23 20:34N 44°19' E 008°30'0 0.0
2015-Aug-23 19:33N 44°19' E 008°30'0 0.0
2015-Aug-23 18:34N 44°19' E 008°30'4 3.6
2015-Aug-23 17:33N 44°15' E 008°31'7518.8
2015-Aug-23 13:32N 43°20' E 007°19'2019.0
2015-Aug-23 12:30N 43°07' E 006°59'1718.4
2015-Aug-23 11:33N 42°56' E 006°41'21619.5
2015-Aug-23 00:29N 41°19' E 002°20'8 7.7
2015-Aug-22 23:30N 41°22' E 002°11'5 0.6
2015-Aug-22 16:05N 41°17' E 002°13'5 8.7
2015-Aug-22 15:32N 41°19' E 002°18'1818.2
2015-Aug-22 14:33N 41°28' E 002°40'1818.4
2015-Aug-22 13:33N 41°36' E 003°02'15718.7
2015-Aug-22 05:10N 42°43' E 006°13'1620.5
2015-Aug-22 04:22N 42°49' E 006°34'1720.4
2015-Aug-22 03:34N 42°58' E 006°53'2120.5
2015-Aug-22 02:34N 43°13' E 007°12'7120.6
2015-Aug-21 23:06N 44°03' E 008°22'1120.5
2015-Aug-21 22:33N 44°13' E 008°30'6 6.1
2015-Aug-21 21:33N 44°19' E 008°30'0 0.0
2015-Aug-21 20:33N 44°19' E 008°30'0 0.0
2015-Aug-21 19:33N 44°19' E 008°30'0 0.0
2015-Aug-21 18:33N 44°19' E 008°30'0 0.0
2015-Aug-21 17:33N 44°19' E 008°30'0 0.1
2015-Aug-21 16:33N 44°19' E 008°30'1313.3
2015-Aug-21 15:33N 44°06' E 008°25'5818.2
2015-Aug-21 12:21N 43°25' E 007°28'1518.3
2015-Aug-21 11:31N 43°14' E 007°12'1818.4
2015-Aug-21 10:33N 43°03' E 006°54'1818.2
2015-Aug-21 09:33N 42°51' E 006°34'5819.2
2015-Aug-21 06:32N 42°25' E 005°25'4419.9
2015-Aug-21 04:17N 42°06' E 004°30'1919.9
2015-Aug-21 03:20N 41°58' E 004°07'1819.9
2015-Aug-21 02:27N 41°50' E 003°45'2120.1
2015-Aug-21 01:24N 41°41' E 003°20'1720.1
2015-Aug-21 00:33N 41°33' E 002°60'2020.1
2015-Aug-20 23:33N 41°25' E 002°35'2020.0
2015-Aug-20 22:33N 41°17' E 002°11'5 3.9
2015-Aug-20 21:15N 41°22' E 002°11'0 0.0
2015-Aug-20 16:33N 41°22' E 002°11'5 4.8
2015-Aug-20 15:32N 41°18' E 002°15'21218.8
2015-Aug-20 04:16N 42°50' E 006°33'1420.3
2015-Aug-20 03:33N 42°59' E 006°48'2120.7
2015-Aug-20 02:33N 43°13' E 007°08'7220.8
2015-Aug-19 23:05N 44°02' E 008°21'1120.8
2015-Aug-19 22:33N 44°12' E 008°29'7 6.9
2015-Aug-19 21:32N 44°19' E 008°30'0 0.0
2015-Aug-19 20:32N 44°19' E 008°30'0 0.0
2015-Aug-19 19:32N 44°19' E 008°30'0 0.0
2015-Aug-19 18:32N 44°19' E 008°30'0 0.0
2015-Aug-19 17:32N 44°19' E 008°30'1 0.7
2015-Aug-19 16:33N 44°19' E 008°31'1817.9
2015-Aug-19 15:32N 44°02' E 008°20'5819.0
2015-Aug-19 12:29N 43°21' E 007°23'1819.2
2015-Aug-19 11:34N 43°10' E 007°05'2219.3
2015-Aug-19 10:26N 42°56' E 006°41'  

Dump ship's entire track history